Fayetteville, NC (28301)

12:44 AM EST on March 01, 2015 (GMT -0500)
Fayetteville Regional-Grannis | Change Station
CLOSE
Current Station
Airport
Location: Fayetteville,
Elevation: 190 ft
Nearby Weather Stations
Active Advisory: Winter Weather Advisory

Elev 190 ft 34.99 °N, 78.88 °W | Updated 51 minutes ago

Overcast
Overcast
36 °F
Feels Like 28 °F
N
10
Wind Variable Wind from NE

Today
High -- | Low -- °F
--% Chance of Precip.
Yesterday
High -- | Low -- °F
Precip. -- in
6:45 AM 6:10 PM
Waxing Gibbous, 83% visible
Pressure 30.63 in
Visibility 10.0 miles
Clouds Overcast 2600 ft
Windchill 28 °F
Dew Point 20 °F
Humidity 52%
Rainfall 0.00 in
Snow Depth Not available.
UV 0 out of 12
Pollen 3.10 out of 12
Air Quality Not available.
Flu Activity Not available.
METAR KFAY 010453Z AUTO 04009KT 10SM OVC026 02/M07 A3064 RMK AO2 SLP372 T00221067 400671022

More Conditions Fewer Conditions

Pressure 30.63 in
Visibility 10.0 miles
Clouds Overcast 2600 ft
Windchill 28 °F
Dew Point 20 °F
Humidity 52%
Rainfall 0.00 in
Snow Depth Not available.
UV 0 out of 12
Pollen 3.10 out of 12
Air Quality Not available.
Flu Activity Not available.
METAR KFAY 010453Z AUTO 04009KT 10SM OVC026 02/M07 A3064 RMK AO2 SLP372 T00221067 400671022

More Conditions Fewer Conditions

10-Day Weather Forecast

Almanac

Astronomy

Mar. 01, 2015 Rise Set
Actual Time
Civil Twilight
Nautical Twilight
Astronomical Twilight
Moon
Length of Visible Light
Length of Day
Tomorrow will be .
, % of the Moon is Illuminated

Today's Extremes

State Highs State Lows

Community

WunderPhotos

Upload Photos

1,801,336 photos uploaded!

WunderBlogs® & News

Nearby

Air Quality

  Air Quality AQ Index Pollutant
Not available.

Snow Depth

Station Depth Elevation

Earthquake Activity

City Distance Mag. Time & Date
Minimum magnitude displayed is 2.5.

Coastal Water Temperatures

Place Temperature

Nearby Weather Stations

Winter Weather Advisory
Statement as of 10:47 PM EST on February 28, 2015

... Winter Weather Advisory remains in effect until 10 am EST
Sunday...

* locations... south central North Carolina including Wadesboro...
Rockingham... Laurinburg... Raeford... Lillington... and
Fayetteville.

* Hazard types... mainly freezing rain and freezing drizzle.

* Accumulations... of up to several hundredths of an inch of
ice... or a light coating... can be expected.

* Timing... late tonight through mid to late morning Sunday.

* Impacts... a thin coating of ice on roads and sidewalks will make
travel treacherous through Sunday morning.

* Temperatures... will hover in the lower 30s.

Precautionary/preparedness actions...

This Winter Weather Advisory means that periods of freezing rain
or freezing drizzle will cause travel difficulties. Be prepared
for slippery roads... and use extra caution while driving.